createdAt,value
2022-11-05T00:01:19.087Z,24.70
2022-11-05T00:03:20.892Z,24.43
2022-11-05T00:05:22.694Z,24.67
2022-11-05T00:07:42.119Z,24.70
2022-11-05T00:09:43.833Z,24.42
2022-11-05T00:11:45.541Z,24.58
2022-11-05T00:13:47.244Z,24.41
2022-11-05T00:15:48.932Z,24.55
2022-11-05T00:17:50.686Z,24.43
2022-11-05T00:19:52.465Z,24.06
2022-11-05T00:21:54.281Z,24.08
2022-11-05T00:23:56.161Z,24.12
2022-11-05T00:25:59.030Z,24.38
2022-11-05T00:28:01.950Z,24.30
2022-11-05T00:30:04.138Z,24.47
2022-11-05T00:32:05.890Z,24.35
2022-11-05T00:34:07.655Z,24.60
2022-11-05T00:36:10.097Z,24.49
2022-11-05T00:38:11.805Z,24.64
2022-11-05T00:40:14.180Z,24.51
2022-11-05T00:42:15.856Z,24.59
2022-11-05T00:44:17.512Z,24.35
2022-11-05T00:46:19.198Z,24.52
2022-11-05T00:48:20.990Z,24.16
2022-11-05T00:50:22.717Z,24.34
2022-11-05T00:52:24.454Z,24.59
2022-11-05T00:54:26.191Z,24.70
2022-11-05T00:56:27.876Z,24.42
2022-11-05T00:58:29.626Z,24.41
2022-11-05T01:00:32.013Z,24.37
2022-11-05T01:02:33.827Z,24.63
2022-11-05T01:04:35.696Z,24.42
2022-11-05T01:06:37.504Z,24.23
2022-11-05T01:08:39.415Z,24.40
2022-11-05T01:10:44.123Z,24.55
2022-11-05T01:12:45.897Z,24.43
2022-11-05T01:14:47.688Z,24.50
2022-11-05T01:16:49.399Z,24.71
2022-11-05T01:18:51.045Z,24.38
2022-11-05T01:20:52.753Z,24.40
2022-11-05T01:22:54.461Z,24.22
2022-11-05T01:24:56.244Z,24.15
2022-11-05T01:26:58.004Z,24.09
2022-11-05T01:28:59.831Z,24.21
2022-11-05T01:31:01.644Z,24.39
2022-11-05T01:33:03.389Z,24.51
2022-11-05T01:35:07.017Z,24.51
2022-11-05T01:37:08.714Z,24.43
2022-11-05T01:39:10.450Z,24.33
2022-11-05T01:41:12.193Z,24.18
2022-11-05T01:43:18.055Z,24.25
2022-11-05T01:45:25.738Z,24.07
2022-11-05T01:47:45.926Z,24.07
2022-11-05T01:49:47.591Z,24.10
2022-11-05T01:51:49.311Z,23.85
2022-11-05T01:54:02.210Z,24.38
2022-11-05T01:56:11.833Z,24.39
2022-11-05T01:58:15.363Z,24.14
2022-11-05T02:00:17.220Z,24.35
2022-11-05T02:02:19.268Z,24.04
2022-11-05T02:04:28.087Z,24.33
2022-11-05T02:06:30.376Z,24.20
2022-11-05T02:08:39.263Z,24.00
2022-11-05T02:10:41.262Z,23.85
2022-11-05T02:12:44.799Z,24.04
2022-11-05T02:14:46.599Z,24.04
2022-11-05T02:16:53.435Z,24.22
2022-11-05T02:19:07.190Z,24.09
2022-11-05T02:21:27.298Z,24.29
2022-11-05T02:23:35.496Z,23.96
2022-11-05T02:26:15.122Z,24.41
2022-11-05T02:28:49.388Z,24.10
2022-11-05T02:31:09.587Z,23.94
2022-11-05T02:33:22.964Z,24.36
2022-11-05T02:35:30.359Z,23.94
2022-11-05T02:37:41.625Z,24.32
2022-11-05T02:40:20.386Z,24.44
2022-11-05T02:42:36.200Z,24.30
2022-11-05T02:44:56.690Z,24.06
2022-11-05T02:47:07.179Z,24.44
2022-11-05T02:49:26.709Z,24.15
2022-11-05T02:51:32.755Z,24.48
2022-11-05T02:53:43.259Z,24.13
2022-11-05T02:55:53.502Z,24.20
2022-11-05T02:57:55.166Z,24.48
2022-11-05T03:00:01.516Z,24.54
2022-11-05T03:02:03.475Z,24.42
2022-11-05T03:04:07.180Z,24.52
2022-11-05T03:06:23.729Z,24.19
2022-11-05T03:08:35.585Z,24.34
2022-11-05T03:10:42.231Z,24.48
2022-11-05T03:12:52.837Z,24.66
2022-11-05T03:15:22.064Z,24.59
2022-11-05T03:17:35.470Z,24.41
2022-11-05T03:19:48.467Z,24.49
2022-11-05T03:22:36.793Z,24.04
2022-11-05T03:24:40.993Z,24.09
2022-11-05T03:27:18.634Z,24.18
2022-11-05T03:29:23.226Z,24.33
2022-11-05T03:31:25.041Z,24.61
2022-11-05T03:33:28.933Z,24.58
2022-11-05T03:35:34.133Z,24.35
2022-11-05T03:37:37.116Z,24.47
2022-11-05T03:39:43.744Z,24.24
2022-11-05T03:41:45.937Z,24.44
2022-11-05T03:43:50.038Z,24.13
2022-11-05T03:45:55.703Z,24.06
2022-11-05T03:47:58.906Z,24.31
2022-11-05T03:50:27.629Z,24.24
2022-11-05T03:52:31.989Z,24.31
2022-11-05T03:54:33.688Z,24.17
2022-11-05T03:56:44.321Z,24.20
2022-11-05T03:58:46.164Z,24.51
2022-11-05T04:00:48.353Z,24.41
2022-11-05T04:02:50.207Z,24.39
2022-11-05T04:04:52.540Z,24.29
2022-11-05T04:06:54.241Z,24.19
2022-11-05T04:08:55.936Z,24.21
2022-11-05T04:10:57.582Z,24.54
2022-11-05T04:12:59.265Z,24.38
2022-11-05T04:15:01.109Z,24.36
2022-11-05T04:17:02.861Z,24.22
2022-11-05T04:19:04.681Z,24.60
2022-11-05T04:21:06.512Z,24.50
2022-11-05T04:23:08.382Z,24.35
2022-11-05T04:25:10.413Z,24.71
2022-11-05T04:27:12.144Z,24.38
2022-11-05T04:29:13.829Z,24.22
2022-11-05T04:31:15.683Z,24.08
2022-11-05T04:33:17.463Z,24.47
2022-11-05T04:35:19.145Z,24.50
2022-11-05T04:37:20.825Z,24.40
2022-11-05T04:39:22.606Z,24.69
2022-11-05T04:41:24.289Z,24.46
2022-11-05T04:43:25.940Z,24.67
2022-11-05T04:45:30.721Z,24.73
2022-11-05T04:47:32.387Z,24.35
2022-11-05T04:49:34.127Z,24.54
2022-11-05T04:51:35.853Z,24.39
2022-11-05T04:53:37.539Z,24.27
2022-11-05T04:55:39.313Z,24.62
2022-11-05T04:57:41.140Z,24.33
2022-11-05T04:59:42.783Z,24.49
2022-11-05T05:01:44.555Z,24.61
2022-11-05T05:03:50.105Z,24.65
2022-11-05T05:05:53.815Z,24.59
2022-11-05T05:07:55.671Z,24.75
2022-11-05T05:09:57.338Z,24.34
2022-11-05T05:11:58.996Z,24.31
2022-11-05T05:14:00.753Z,24.32
2022-11-05T05:16:06.832Z,24.46
2022-11-05T05:18:09.288Z,24.81
2022-11-05T05:20:10.986Z,24.36
2022-11-05T05:22:12.704Z,24.83
2022-11-05T05:24:16.762Z,24.73
2022-11-05T05:26:18.470Z,24.60
2022-11-05T05:28:20.166Z,24.26
2022-11-05T05:30:21.909Z,24.64
2022-11-05T05:32:23.833Z,24.38
2022-11-05T05:34:25.619Z,24.54
2022-11-05T05:36:27.366Z,24.58
2022-11-05T05:38:29.339Z,24.56
2022-11-05T05:40:31.077Z,24.32
2022-11-05T05:42:32.778Z,24.25
2022-11-05T05:44:34.506Z,24.58
2022-11-05T05:46:36.174Z,24.30
2022-11-05T05:48:37.862Z,24.51
2022-11-05T05:50:39.601Z,24.26
2022-11-05T05:52:41.740Z,24.23
2022-11-05T05:54:43.543Z,24.35
2022-11-05T05:56:45.512Z,24.52
2022-11-05T05:58:47.430Z,24.60
2022-11-05T06:00:49.622Z,24.48
2022-11-05T06:02:51.463Z,24.77
2022-11-05T06:04:53.209Z,24.55
2022-11-05T06:06:54.858Z,24.52
2022-11-05T06:08:56.650Z,24.58
2022-11-05T06:10:58.976Z,24.62
2022-11-05T06:13:00.777Z,24.64
2022-11-05T06:15:02.530Z,24.72
2022-11-05T06:17:04.217Z,24.97
2022-11-05T06:19:06.686Z,24.79
2022-11-05T06:21:10.098Z,25.17
2022-11-05T06:25:13.857Z,25.10
2022-11-05T06:27:15.531Z,25.04
2022-11-05T06:29:17.208Z,25.52
2022-11-05T06:31:18.943Z,25.58
2022-11-05T06:33:20.828Z,25.57
2022-11-05T06:35:22.541Z,25.53
2022-11-05T06:37:24.246Z,25.50
2022-11-05T06:39:25.909Z,25.56
2022-11-05T06:41:27.647Z,25.55
2022-11-05T06:43:29.430Z,25.85
2022-11-05T06:45:31.333Z,25.63
2022-11-05T06:47:33.052Z,25.84
2022-11-05T06:49:34.848Z,25.90
2022-11-05T06:51:36.495Z,25.64
2022-11-05T06:53:38.174Z,26.05
2022-11-05T06:55:40.055Z,25.54
2022-11-05T06:57:41.761Z,25.77
2022-11-05T06:59:43.494Z,25.80
2022-11-05T07:01:45.356Z,25.87
2022-11-05T07:03:47.116Z,25.90
2022-11-05T07:05:48.844Z,25.98
2022-11-05T07:07:51.888Z,25.53
2022-11-05T07:09:53.576Z,26.11
2022-11-05T07:11:55.368Z,25.93
2022-11-05T07:13:57.124Z,26.28
2022-11-05T07:15:58.793Z,26.22
2022-11-05T07:18:01.714Z,26.84
2022-11-05T07:20:04.653Z,26.82
2022-11-05T07:22:07.886Z,26.83
2022-11-05T07:24:09.586Z,26.66
2022-11-05T07:26:11.192Z,26.79
2022-11-05T07:28:12.965Z,26.44
2022-11-05T07:30:14.750Z,26.25
2022-11-05T07:32:16.414Z,26.67
2022-11-05T07:34:18.239Z,26.35
2022-11-05T07:36:20.023Z,26.37
2022-11-05T07:38:21.651Z,26.66
2022-11-05T07:40:25.766Z,26.26
2022-11-05T07:42:27.453Z,26.37
2022-11-05T07:44:29.129Z,26.01
2022-11-05T07:46:31.062Z,26.01
2022-11-05T07:48:32.720Z,26.07
2022-11-05T07:50:35.831Z,25.88
2022-11-05T07:52:37.479Z,25.90
2022-11-05T07:54:39.238Z,25.83
2022-11-05T07:56:40.953Z,25.90
2022-11-05T07:58:42.781Z,25.58
2022-11-05T08:00:44.718Z,25.79
2022-11-05T08:03:10.317Z,25.60
2022-11-05T08:05:12.314Z,25.76
2022-11-05T08:07:14.068Z,25.68
2022-11-05T08:09:15.818Z,25.77
2022-11-05T08:11:17.552Z,25.68
2022-11-05T08:13:19.288Z,25.85
2022-11-05T08:15:21.203Z,26.08
2022-11-05T08:17:22.919Z,25.80
2022-11-05T08:19:27.290Z,25.81
2022-11-05T08:21:29.078Z,25.89
2022-11-05T08:23:31.168Z,25.82
2022-11-05T08:25:32.953Z,25.56
2022-11-05T08:27:34.681Z,25.83
2022-11-05T08:29:36.512Z,25.83
2022-11-05T08:31:41.442Z,25.93
2022-11-05T08:33:43.080Z,25.74
2022-11-05T08:35:44.876Z,25.78
2022-11-05T08:37:46.713Z,25.69
2022-11-05T08:39:48.493Z,25.75
2022-11-05T08:41:53.269Z,25.62
2022-11-05T08:43:56.066Z,25.44
2022-11-05T08:46:00.484Z,25.45
2022-11-05T08:48:15.507Z,25.44
2022-11-05T08:50:17.586Z,25.62
2022-11-05T08:52:19.274Z,25.30
2022-11-05T08:54:20.998Z,25.52
2022-11-05T08:56:22.814Z,25.54
2022-11-05T08:58:24.699Z,25.79
2022-11-05T09:00:36.481Z,25.77
2022-11-05T09:02:38.176Z,25.67
2022-11-05T09:04:39.917Z,25.64
2022-11-05T09:06:41.721Z,25.68
2022-11-05T09:08:43.489Z,25.97
2022-11-05T09:10:46.586Z,25.72
2022-11-05T09:12:48.267Z,26.17
2022-11-05T09:14:49.941Z,26.21
2022-11-05T09:16:51.825Z,26.10
2022-11-05T09:18:53.544Z,26.26
2022-11-05T09:20:55.463Z,26.54
2022-11-05T09:22:57.184Z,26.43
2022-11-05T09:24:58.925Z,26.42
2022-11-05T09:27:00.608Z,26.66
2022-11-05T09:29:02.322Z,26.72
2022-11-05T09:31:08.083Z,26.55
2022-11-05T09:33:10.635Z,26.92
2022-11-05T09:35:12.526Z,26.67
2022-11-05T09:37:14.165Z,26.56
2022-11-05T09:39:16.111Z,26.76
2022-11-05T09:41:38.929Z,26.38
2022-11-05T09:43:44.952Z,26.32
2022-11-05T09:45:48.698Z,25.96
2022-11-05T09:48:01.214Z,26.24
2022-11-05T09:50:07.460Z,26.33
2022-11-05T09:52:22.672Z,26.14
2022-11-05T09:54:26.402Z,26.10
2022-11-05T09:56:32.221Z,26.27
2022-11-05T09:58:42.404Z,26.57
2022-11-05T10:00:44.187Z,26.84
2022-11-05T10:02:54.626Z,27.06
2022-11-05T10:04:58.155Z,26.79
2022-11-05T10:07:02.188Z,26.93
2022-11-05T10:09:11.690Z,27.08
2022-11-05T10:11:28.467Z,26.94
2022-11-05T10:13:48.207Z,27.02
2022-11-05T10:16:01.349Z,27.03
2022-11-05T10:18:16.846Z,26.89
2022-11-05T10:20:30.606Z,26.55
2022-11-05T10:22:32.642Z,26.95
2022-11-05T10:24:34.350Z,26.63
2022-11-05T10:26:36.026Z,26.62
2022-11-05T10:28:37.891Z,26.64
2022-11-05T10:30:39.645Z,26.75
2022-11-05T10:32:41.543Z,27.01
2022-11-05T10:34:43.233Z,27.09
2022-11-05T10:36:44.906Z,26.94
2022-11-05T10:38:46.560Z,27.14
2022-11-05T10:41:34.529Z,27.28
2022-11-05T10:43:50.320Z,27.09
2022-11-05T10:46:29.520Z,27.29
2022-11-05T10:48:44.151Z,27.19
2022-11-05T10:50:46.071Z,27.17
2022-11-05T10:53:28.616Z,27.18
2022-11-05T10:55:36.213Z,27.50
2022-11-05T10:57:39.530Z,27.16
2022-11-05T10:59:41.223Z,27.30
2022-11-05T11:01:43.017Z,27.20
2022-11-05T11:03:49.320Z,27.38
2022-11-05T11:05:50.970Z,27.37
2022-11-05T11:08:13.936Z,27.43
2022-11-05T11:10:22.082Z,27.43
2022-11-05T11:12:24.439Z,27.42
2022-11-05T11:14:26.273Z,27.52
2022-11-05T11:16:29.449Z,27.70
2022-11-05T11:18:40.630Z,27.61
2022-11-05T11:20:44.641Z,27.65
2022-11-05T11:23:02.560Z,27.79
2022-11-05T11:25:19.144Z,27.85
2022-11-05T11:27:26.288Z,27.69
2022-11-05T11:29:28.398Z,27.58
2022-11-05T11:31:31.488Z,27.60
2022-11-05T11:33:33.188Z,27.58
2022-11-05T11:35:36.566Z,27.62
2022-11-05T11:37:39.087Z,27.38
2022-11-05T11:39:40.945Z,27.52
2022-11-05T11:41:43.181Z,27.59
2022-11-05T11:43:44.985Z,27.65
2022-11-05T11:45:48.314Z,27.64
2022-11-05T11:47:50.038Z,27.46
2022-11-05T11:49:53.602Z,27.61
2022-11-05T11:51:55.540Z,27.66
2022-11-05T11:53:58.457Z,27.63
2022-11-05T11:56:12.481Z,27.70
2022-11-05T11:58:14.213Z,27.88
2022-11-05T12:00:16.613Z,28.07
2022-11-05T12:03:02.583Z,27.72
2022-11-05T12:05:22.965Z,27.89
2022-11-05T12:07:27.943Z,27.65
2022-11-05T12:09:38.616Z,27.87
2022-11-05T12:11:47.184Z,27.90
2022-11-05T12:14:11.160Z,27.82
2022-11-05T12:16:38.631Z,27.86
2022-11-05T12:18:48.768Z,27.89
2022-11-05T12:20:55.374Z,27.73
2022-11-05T12:23:37.095Z,27.85
2022-11-05T12:25:53.445Z,27.82
2022-11-05T12:28:25.580Z,28.12
2022-11-05T12:30:27.319Z,27.90
2022-11-05T12:32:44.197Z,28.00
2022-11-05T12:34:58.627Z,27.87
2022-11-05T12:37:22.012Z,27.98
2022-11-05T12:39:41.975Z,28.15
2022-11-05T12:41:56.373Z,28.10
2022-11-05T12:44:10.189Z,28.09
2022-11-05T12:46:23.541Z,28.05
2022-11-05T12:48:39.727Z,27.65
2022-11-05T12:50:45.092Z,28.06
2022-11-05T12:53:03.731Z,27.53
2022-11-05T12:55:18.427Z,27.75
2022-11-05T12:57:20.283Z,27.85
2022-11-05T12:59:26.717Z,27.65
2022-11-05T13:01:43.843Z,28.07
2022-11-05T13:03:56.210Z,27.92
2022-11-05T13:06:10.403Z,28.05
2022-11-05T13:08:27.739Z,27.97
2022-11-05T13:10:37.269Z,27.87
2022-11-05T13:12:39.985Z,27.95
2022-11-05T13:14:45.530Z,27.90
2022-11-05T13:16:52.815Z,28.02
2022-11-05T13:19:07.131Z,28.15
2022-11-05T13:21:09.077Z,28.13
2022-11-05T13:23:14.232Z,28.03
2022-11-05T13:25:21.198Z,28.13
2022-11-05T13:27:41.427Z,28.13
2022-11-05T13:29:57.131Z,28.07
2022-11-05T13:32:23.902Z,28.31
2022-11-05T13:34:26.013Z,28.21
2022-11-05T13:36:55.415Z,28.22
2022-11-05T13:39:07.234Z,28.13
2022-11-05T13:41:14.838Z,28.20
2022-11-05T13:43:25.184Z,28.17
2022-11-05T13:46:01.417Z,28.17
2022-11-05T13:48:47.487Z,28.09
2022-11-05T13:51:12.220Z,28.21
2022-11-05T13:53:50.973Z,28.05
2022-11-05T13:56:17.374Z,28.19
2022-11-05T13:58:43.414Z,28.36
2022-11-05T14:01:07.580Z,28.48
2022-11-05T14:03:19.564Z,28.36
2022-11-05T14:05:33.289Z,28.48
2022-11-05T14:07:37.057Z,28.18
2022-11-05T14:09:38.879Z,28.26
2022-11-05T14:11:42.045Z,28.42
2022-11-05T14:13:44.247Z,28.40
2022-11-05T14:16:08.895Z,28.67
2022-11-05T14:18:49.293Z,28.42
2022-11-05T14:21:04.575Z,28.30
2022-11-05T14:23:21.543Z,28.18
2022-11-05T14:25:23.300Z,28.20
2022-11-05T14:27:37.226Z,28.14
2022-11-05T14:29:48.946Z,28.11
2022-11-05T14:32:08.188Z,28.05
2022-11-05T14:34:10.749Z,28.19
2022-11-05T14:36:21.194Z,28.44
2022-11-05T14:38:25.148Z,28.01
2022-11-05T14:40:39.726Z,28.00
2022-11-05T14:42:42.539Z,28.19
2022-11-05T14:45:08.404Z,28.30
2022-11-05T14:47:19.970Z,28.40
2022-11-05T14:49:48.989Z,28.69
2022-11-05T14:51:52.572Z,28.63
2022-11-05T14:54:16.122Z,28.63
2022-11-05T14:56:18.446Z,28.70
2022-11-05T14:58:31.536Z,28.90
2022-11-05T15:00:33.174Z,28.79
2022-11-05T15:02:36.820Z,28.58
2022-11-05T15:04:38.777Z,28.55
2022-11-05T15:06:40.879Z,29.03
2022-11-05T15:08:48.615Z,28.76
2022-11-05T15:10:50.400Z,28.73
2022-11-05T15:12:54.206Z,28.85
2022-11-05T15:15:03.519Z,29.09
2022-11-05T15:17:25.555Z,28.83
2022-11-05T15:19:34.756Z,29.00
2022-11-05T15:21:36.524Z,28.88
2022-11-05T15:23:53.012Z,28.92
2022-11-05T15:26:14.842Z,28.94
2022-11-05T15:28:38.403Z,29.09
2022-11-05T15:30:49.846Z,28.94
2022-11-05T15:32:51.876Z,28.86
2022-11-05T15:34:54.665Z,29.15
2022-11-05T15:37:16.928Z,28.88
2022-11-05T15:39:41.178Z,28.93
2022-11-05T15:41:43.148Z,28.65
2022-11-05T15:43:48.037Z,28.83
2022-11-05T15:46:02.565Z,28.58
2022-11-05T15:48:13.689Z,28.74
2022-11-05T15:50:15.616Z,28.62
2022-11-05T15:52:19.665Z,28.57
2022-11-05T15:54:30.176Z,28.64
2022-11-05T15:56:32.359Z,28.58
2022-11-05T15:58:37.523Z,28.67
2022-11-05T16:00:40.008Z,28.73
2022-11-05T16:02:41.942Z,28.74
2022-11-05T16:04:48.468Z,28.79
2022-11-05T16:06:52.757Z,28.46
2022-11-05T16:08:54.436Z,28.64
2022-11-05T16:10:58.021Z,28.94
2022-11-05T16:13:22.548Z,28.71
2022-11-05T16:15:26.022Z,28.90
2022-11-05T16:17:30.257Z,28.70
2022-11-05T16:19:40.587Z,29.01
2022-11-05T16:21:54.895Z,29.28
2022-11-05T16:23:59.994Z,28.62
2022-11-05T16:26:01.768Z,29.29
2022-11-05T16:28:04.033Z,29.03
2022-11-05T16:30:06.560Z,29.13
2022-11-05T16:32:29.759Z,29.09
2022-11-05T16:34:40.219Z,29.14
2022-11-05T16:36:41.857Z,29.10
2022-11-05T16:38:43.800Z,29.01
2022-11-05T16:40:45.700Z,29.08
2022-11-05T16:42:47.558Z,28.96
2022-11-05T16:44:55.092Z,28.98
2022-11-05T16:46:56.742Z,29.26
2022-11-05T16:48:58.405Z,29.04
2022-11-05T16:51:00.149Z,29.01
2022-11-05T16:53:01.892Z,29.01
2022-11-05T16:55:03.807Z,29.21
2022-11-05T16:57:08.019Z,29.16
2022-11-05T16:59:11.233Z,29.26
2022-11-05T17:01:18.302Z,29.45
2022-11-05T17:03:20.275Z,29.28
2022-11-05T17:05:27.648Z,28.96
2022-11-05T17:07:29.335Z,29.30
2022-11-05T17:09:31.077Z,29.43
2022-11-05T17:11:32.833Z,29.26
2022-11-05T17:13:34.556Z,29.28
2022-11-05T17:15:36.284Z,29.34
2022-11-05T17:17:38.010Z,29.60
2022-11-05T17:19:39.819Z,29.34
2022-11-05T17:21:41.997Z,29.09
2022-11-05T17:23:44.453Z,29.15
2022-11-05T17:25:48.565Z,28.73
2022-11-05T17:27:50.330Z,28.82
2022-11-05T17:29:52.095Z,28.80
2022-11-05T17:31:53.869Z,28.87
2022-11-05T17:33:57.686Z,29.02
2022-11-05T17:35:59.542Z,28.97
2022-11-05T17:38:01.342Z,28.77
2022-11-05T17:40:04.466Z,29.00
2022-11-05T17:42:06.227Z,29.23
2022-11-05T17:44:09.969Z,29.48
2022-11-05T17:46:13.353Z,29.49
2022-11-05T17:48:15.482Z,29.59
2022-11-05T17:50:17.291Z,29.58
2022-11-05T17:52:19.077Z,29.59
2022-11-05T17:54:21.106Z,29.57
2022-11-05T17:56:33.446Z,29.57
2022-11-05T17:58:36.957Z,29.66
2022-11-05T18:00:38.809Z,29.46
2022-11-05T18:02:40.565Z,29.30
2022-11-05T18:04:42.251Z,29.33
2022-11-05T18:06:44.063Z,29.37
2022-11-05T18:08:45.997Z,29.27
2022-11-05T18:10:47.720Z,29.47
2022-11-05T18:12:49.442Z,29.51
2022-11-05T18:14:51.081Z,29.46
2022-11-05T18:16:52.729Z,29.40
2022-11-05T18:18:54.550Z,29.18
2022-11-05T18:20:59.525Z,29.23
2022-11-05T18:23:01.364Z,29.28
2022-11-05T18:25:03.015Z,29.07
2022-11-05T18:27:04.714Z,28.75
2022-11-05T18:29:06.395Z,29.13
2022-11-05T18:31:18.029Z,29.34
2022-11-05T18:33:20.320Z,29.28
2022-11-05T18:35:21.985Z,29.22
2022-11-05T18:37:23.638Z,29.56
2022-11-05T18:39:25.503Z,28.97
2022-11-05T18:41:27.594Z,29.36
2022-11-05T18:43:29.258Z,29.08
2022-11-05T18:45:30.896Z,29.21
2022-11-05T18:47:33.167Z,29.17
2022-11-05T18:49:34.962Z,29.05
2022-11-05T18:51:36.729Z,29.31
2022-11-05T18:53:38.819Z,29.30
2022-11-05T18:55:40.617Z,29.48
2022-11-05T18:57:42.346Z,29.61
2022-11-05T18:59:44.010Z,29.61
2022-11-05T19:01:46.734Z,29.47
2022-11-05T19:03:49.084Z,29.31
2022-11-05T19:05:50.847Z,29.26
2022-11-05T19:07:52.452Z,29.38
2022-11-05T19:09:54.145Z,29.28
2022-11-05T19:11:55.822Z,28.94
2022-11-05T19:13:57.617Z,29.08
2022-11-05T19:15:59.320Z,28.94
2022-11-05T19:18:01.040Z,29.03
2022-11-05T19:20:03.293Z,28.93
2022-11-05T19:22:05.056Z,29.14
2022-11-05T19:24:07.691Z,29.17
2022-11-05T19:26:11.817Z,29.18
2022-11-05T19:28:13.822Z,29.19
2022-11-05T19:30:15.913Z,29.30
2022-11-05T19:32:17.590Z,29.38
2022-11-05T19:34:19.339Z,29.40
2022-11-05T19:36:21.951Z,29.32
2022-11-05T19:38:23.881Z,29.66
2022-11-05T19:40:25.500Z,29.71
2022-11-05T19:42:27.215Z,29.76
2022-11-05T19:44:29.438Z,29.82
2022-11-05T19:46:31.237Z,30.23
2022-11-05T19:48:33.205Z,30.12
2022-11-05T19:50:35.086Z,29.98
2022-11-05T19:52:36.731Z,30.00
2022-11-05T19:54:39.693Z,29.79
2022-11-05T19:56:43.186Z,29.98
2022-11-05T19:58:45.123Z,29.80
2022-11-05T20:00:46.867Z,29.54
2022-11-05T20:02:48.799Z,29.60
2022-11-05T20:04:50.670Z,29.49
2022-11-05T20:06:52.321Z,29.17
2022-11-05T20:09:20.143Z,28.88
2022-11-05T20:11:16.187Z,29.28
2022-11-05T20:13:19.933Z,29.09
2022-11-05T20:15:21.860Z,29.01
2022-11-05T20:17:23.609Z,28.95
2022-11-05T20:19:25.276Z,28.82
2022-11-05T20:21:26.926Z,28.71
2022-11-05T20:23:28.553Z,28.82
2022-11-05T20:25:30.257Z,29.00
2022-11-05T20:27:31.942Z,29.15
2022-11-05T20:29:35.590Z,28.76
2022-11-05T20:31:37.619Z,28.99
2022-11-05T20:33:39.763Z,28.79
2022-11-05T20:35:41.585Z,28.75
2022-11-05T20:37:43.217Z,28.98
2022-11-05T20:39:44.844Z,28.79
2022-11-05T20:41:46.461Z,29.12
2022-11-05T20:43:48.144Z,28.93
2022-11-05T20:45:49.760Z,28.96
2022-11-05T20:47:51.353Z,29.04
2022-11-05T20:49:53.019Z,29.35
2022-11-05T20:51:54.809Z,28.80
2022-11-05T20:53:57.698Z,29.08
2022-11-05T20:56:02.405Z,28.78
2022-11-05T20:58:06.883Z,28.84
2022-11-05T21:00:09.102Z,28.94
2022-11-05T21:02:11.715Z,28.63
2022-11-05T21:04:13.584Z,28.49
2022-11-05T21:06:15.284Z,29.01
2022-11-05T21:08:16.977Z,28.99
2022-11-05T21:10:18.736Z,28.69
2022-11-05T21:12:20.485Z,28.85
2022-11-05T21:14:22.148Z,29.06
2022-11-05T21:16:23.823Z,28.86
2022-11-05T21:18:27.399Z,28.88
2022-11-05T21:20:29.173Z,29.08
2022-11-05T21:22:30.882Z,29.09
2022-11-05T21:24:33.381Z,29.04
2022-11-05T21:26:35.179Z,29.08
2022-11-05T21:28:37.742Z,29.36
2022-11-05T21:30:40.921Z,29.28
2022-11-05T21:32:42.688Z,29.54
2022-11-05T21:34:44.424Z,29.37
2022-11-05T21:36:46.139Z,29.44
2022-11-05T21:38:47.929Z,29.47
2022-11-05T21:40:49.579Z,29.34
2022-11-05T21:42:51.290Z,29.54
2022-11-05T21:44:57.714Z,29.67
2022-11-05T21:47:01.888Z,29.83
2022-11-05T21:49:04.129Z,29.73
2022-11-05T21:51:05.942Z,29.83
2022-11-05T21:53:13.139Z,29.81
2022-11-05T21:55:14.843Z,29.91
2022-11-05T21:57:17.020Z,29.91
2022-11-05T21:59:21.632Z,30.11
2022-11-05T22:01:23.523Z,30.03
2022-11-05T22:03:25.491Z,30.13
2022-11-05T22:05:27.392Z,30.23
2022-11-05T22:07:31.542Z,30.34
2022-11-05T22:09:33.280Z,30.32
2022-11-05T22:11:36.289Z,30.21
2022-11-05T22:13:37.982Z,30.55
2022-11-05T22:15:39.693Z,30.34
2022-11-05T22:17:46.240Z,30.50
2022-11-05T22:19:48.806Z,30.71
2022-11-05T22:21:50.602Z,30.72
2022-11-05T22:23:52.848Z,30.79
2022-11-05T22:26:01.086Z,31.15
2022-11-05T22:28:02.873Z,30.86
2022-11-05T22:30:05.068Z,30.95
2022-11-05T22:32:06.728Z,31.01
2022-11-05T22:34:09.147Z,30.84
2022-11-05T22:36:11.070Z,31.04
2022-11-05T22:38:12.959Z,31.15
2022-11-05T22:40:14.843Z,31.12
2022-11-05T22:42:16.589Z,31.46
2022-11-05T22:44:18.347Z,31.00
2022-11-05T22:46:21.869Z,31.34
2022-11-05T22:48:23.536Z,31.22
2022-11-05T22:50:25.172Z,31.34
2022-11-05T22:52:26.899Z,31.56
2022-11-05T22:54:28.604Z,31.14
2022-11-05T22:56:33.232Z,31.35
2022-11-05T22:58:34.939Z,31.27
2022-11-05T23:00:37.315Z,31.28
2022-11-05T23:02:39.227Z,31.26
2022-11-05T23:04:41.222Z,31.22
2022-11-05T23:06:42.947Z,31.48
2022-11-05T23:08:44.631Z,31.57
2022-11-05T23:10:46.295Z,31.47
2022-11-05T23:12:47.982Z,31.42
2022-11-05T23:14:49.851Z,31.52
2022-11-05T23:16:51.483Z,31.57
2022-11-05T23:18:53.168Z,31.61
2022-11-05T23:20:54.841Z,31.74
2022-11-05T23:22:57.400Z,31.70
2022-11-05T23:24:59.146Z,31.79
2022-11-05T23:27:00.831Z,31.74
2022-11-05T23:29:02.608Z,31.60
2022-11-05T23:31:04.239Z,31.79
2022-11-05T23:33:06.000Z,31.74
2022-11-05T23:35:08.117Z,31.68
2022-11-05T23:37:09.827Z,31.85
2022-11-05T23:39:11.422Z,31.61
2022-11-05T23:41:13.167Z,31.33
2022-11-05T23:43:15.020Z,31.51
2022-11-05T23:45:16.875Z,31.51
2022-11-05T23:47:18.656Z,31.69
2022-11-05T23:49:20.255Z,31.51
2022-11-05T23:51:21.899Z,31.37
2022-11-05T23:53:23.734Z,31.33
2022-11-05T23:55:25.527Z,31.43
2022-11-05T23:57:27.166Z,31.57
2022-11-05T23:59:28.827Z,31.54
